sensor_id;sensor_type;location;lat;lon;timestamp;pressure;altitude;pressure_sealevel;temperature
35582;BMP180;21687;48.900;9.188;2023-02-26T00:00:00;97914.00;;;-1.40
35582;BMP180;21687;48.900;9.188;2023-02-26T00:02:28;97921.00;;;-1.40
35582;BMP180;21687;48.900;9.188;2023-02-26T00:04:55;97924.00;;;-1.50
35582;BMP180;21687;48.900;9.188;2023-02-26T00:07:21;97919.00;;;-1.70
35582;BMP180;21687;48.900;9.188;2023-02-26T00:09:47;97924.00;;;-1.60
35582;BMP180;21687;48.900;9.188;2023-02-26T00:12:14;97927.00;;;-1.70
35582;BMP180;21687;48.900;9.188;2023-02-26T00:14:40;97931.00;;;-1.70
35582;BMP180;21687;48.900;9.188;2023-02-26T00:19:42;97920.00;;;-1.80
35582;BMP180;21687;48.900;9.188;2023-02-26T00:22:09;97924.00;;;-1.90
35582;BMP180;21687;48.900;9.188;2023-02-26T00:24:35;97925.00;;;-2.00
35582;BMP180;21687;48.900;9.188;2023-02-26T00:27:01;97933.00;;;-2.00
35582;BMP180;21687;48.900;9.188;2023-02-26T00:29:28;97931.00;;;-2.00
35582;BMP180;21687;48.900;9.188;2023-02-26T00:31:54;97929.00;;;-2.10
35582;BMP180;21687;48.900;9.188;2023-02-26T00:34:21;97937.00;;;-2.10
35582;BMP180;21687;48.900;9.188;2023-02-26T00:42:33;97939.00;;;-2.30
35582;BMP180;21687;48.900;9.188;2023-02-26T00:45:01;97925.00;;;-2.30
35582;BMP180;21687;48.900;9.188;2023-02-26T00:48:11;97934.00;;;-2.30
35582;BMP180;21687;48.900;9.188;2023-02-26T00:50:29;97939.00;;;-2.40
35582;BMP180;21687;48.900;9.188;2023-02-26T00:53:16;97949.00;;;-2.30
35582;BMP180;21687;48.900;9.188;2023-02-26T00:55:45;97934.00;;;-2.50
35582;BMP180;21687;48.900;9.188;2023-02-26T00:58:12;97937.00;;;-2.50
35582;BMP180;21687;48.900;9.188;2023-02-26T01:00:38;97901.00;;;-2.40
35582;BMP180;21687;48.900;9.188;2023-02-26T01:03:04;97936.00;;;-2.50
35582;BMP180;21687;48.900;9.188;2023-02-26T01:05:31;97928.00;;;-2.70
35582;BMP180;21687;48.900;9.188;2023-02-26T01:11:11;97934.00;;;-2.80
35582;BMP180;21687;48.900;9.188;2023-02-26T01:13:37;97935.00;;;-2.60
35582;BMP180;21687;48.900;9.188;2023-02-26T01:16:07;97939.00;;;-2.70
35582;BMP180;21687;48.900;9.188;2023-02-26T01:18:37;97931.00;;;-2.70
35582;BMP180;21687;48.900;9.188;2023-02-26T01:21:12;97934.00;;;-2.70
35582;BMP180;21687;48.900;9.188;2023-02-26T01:23:42;97939.00;;;-2.70
35582;BMP180;21687;48.900;9.188;2023-02-26T01:26:19;97940.00;;;-2.80
35582;BMP180;21687;48.900;9.188;2023-02-26T01:28:47;97935.00;;;-2.90
35582;BMP180;21687;48.900;9.188;2023-02-26T01:31:44;97928.00;;;-2.90
35582;BMP180;21687;48.900;9.188;2023-02-26T01:37:05;97940.00;;;-3.00
35582;BMP180;21687;48.900;9.188;2023-02-26T01:39:45;97938.00;;;-3.10
35582;BMP180;21687;48.900;9.188;2023-02-26T01:42:17;97928.00;;;-2.80
35582;BMP180;21687;48.900;9.188;2023-02-26T01:45:12;97936.00;;;-3.00
35582;BMP180;21687;48.900;9.188;2023-02-26T01:47:56;97946.00;;;-2.90
35582;BMP180;21687;48.900;9.188;2023-02-26T01:50:25;97940.00;;;-3.10
35582;BMP180;21687;48.900;9.188;2023-02-26T01:53:21;97944.00;;;-3.20
35582;BMP180;21687;48.900;9.188;2023-02-26T01:55:56;97943.00;;;-3.20
35582;BMP180;21687;48.900;9.188;2023-02-26T01:58:25;97933.00;;;-3.30
35582;BMP180;21687;48.900;9.188;2023-02-26T02:00:52;97936.00;;;-3.40
35582;BMP180;21687;48.900;9.188;2023-02-26T02:03:20;97936.00;;;-3.40
35582;BMP180;21687;48.900;9.188;2023-02-26T02:05:51;97942.00;;;-3.50
35582;BMP180;21687;48.900;9.188;2023-02-26T02:08:19;97944.00;;;-3.50
35582;BMP180;21687;48.900;9.188;2023-02-26T02:10:47;97942.00;;;-3.50
35582;BMP180;21687;48.900;9.188;2023-02-26T02:13:55;97939.00;;;-3.60
35582;BMP180;21687;48.900;9.188;2023-02-26T02:19:07;97939.00;;;-3.70
35582;BMP180;21687;48.900;9.188;2023-02-26T02:30:08;97957.00;;;-3.70
35582;BMP180;21687;48.900;9.188;2023-02-26T02:32:50;97956.00;;;-3.70
35582;BMP180;21687;48.900;9.188;2023-02-26T02:35:21;97956.00;;;-3.70
35582;BMP180;21687;48.900;9.188;2023-02-26T02:38:07;97962.00;;;-3.80
35582;BMP180;21687;48.900;9.188;2023-02-26T02:40:38;97959.00;;;-3.80
35582;BMP180;21687;48.900;9.188;2023-02-26T02:43:23;97959.00;;;-3.70
35582;BMP180;21687;48.900;9.188;2023-02-26T02:46:04;97955.00;;;-3.80
35582;BMP180;21687;48.900;9.188;2023-02-26T02:48:38;97959.00;;;-3.80
35582;BMP180;21687;48.900;9.188;2023-02-26T02:51:13;97967.00;;;-3.70
35582;BMP180;21687;48.900;9.188;2023-02-26T02:54:00;97963.00;;;-3.70
35582;BMP180;21687;48.900;9.188;2023-02-26T02:56:34;97965.00;;;-3.80
35582;BMP180;21687;48.900;9.188;2023-02-26T03:01:56;97974.00;;;-3.70
35582;BMP180;21687;48.900;9.188;2023-02-26T03:04:23;97969.00;;;-3.70
35582;BMP180;21687;48.900;9.188;2023-02-26T03:06:50;97964.00;;;-3.70
35582;BMP180;21687;48.900;9.188;2023-02-26T03:09:16;97971.00;;;-3.70
35582;BMP180;21687;48.900;9.188;2023-02-26T03:11:43;97972.00;;;-3.70
35582;BMP180;21687;48.900;9.188;2023-02-26T03:14:10;97984.00;;;-3.70
35582;BMP180;21687;48.900;9.188;2023-02-26T03:22:17;97985.00;;;-3.90
35582;BMP180;21687;48.900;9.188;2023-02-26T03:30:53;97983.00;;;-4.10
35582;BMP180;21687;48.900;9.188;2023-02-26T03:36:10;97987.00;;;-4.20
35582;BMP180;21687;48.900;9.188;2023-02-26T03:38:54;97997.00;;;-4.30
35582;BMP180;21687;48.900;9.188;2023-02-26T03:41:44;98001.00;;;-4.30
35582;BMP180;21687;48.900;9.188;2023-02-26T03:44:21;97998.00;;;-4.20
35582;BMP180;21687;48.900;9.188;2023-02-26T03:46:56;98009.00;;;-4.20
35582;BMP180;21687;48.900;9.188;2023-02-26T03:49:33;98013.00;;;-4.30
35582;BMP180;21687;48.900;9.188;2023-02-26T03:52:02;98014.00;;;-4.20
35582;BMP180;21687;48.900;9.188;2023-02-26T03:54:33;98015.00;;;-4.30
35582;BMP180;21687;48.900;9.188;2023-02-26T03:57:00;98017.00;;;-4.30
35582;BMP180;21687;48.900;9.188;2023-02-26T03:59:26;98008.00;;;-4.40
35582;BMP180;21687;48.900;9.188;2023-02-26T04:07:08;98009.00;;;-4.50
35582;BMP180;21687;48.900;9.188;2023-02-26T04:09:35;98012.00;;;-4.50
35582;BMP180;21687;48.900;9.188;2023-02-26T04:12:01;98011.00;;;-4.50
35582;BMP180;21687;48.900;9.188;2023-02-26T04:14:27;98022.00;;;-4.50
35582;BMP180;21687;48.900;9.188;2023-02-26T04:16:54;98025.00;;;-4.60
35582;BMP180;21687;48.900;9.188;2023-02-26T04:19:20;98018.00;;;-4.50
35582;BMP180;21687;48.900;9.188;2023-02-26T04:21:46;98017.00;;;-4.50
35582;BMP180;21687;48.900;9.188;2023-02-26T04:24:12;98015.00;;;-4.50
35582;BMP180;21687;48.900;9.188;2023-02-26T04:26:39;98023.00;;;-4.40
35582;BMP180;21687;48.900;9.188;2023-02-26T04:29:05;98022.00;;;-4.50
35582;BMP180;21687;48.900;9.188;2023-02-26T04:31:31;98023.00;;;-4.60
35582;BMP180;21687;48.900;9.188;2023-02-26T04:33:58;98033.00;;;-4.60
35582;BMP180;21687;48.900;9.188;2023-02-26T04:36:24;98030.00;;;-4.60
35582;BMP180;21687;48.900;9.188;2023-02-26T04:38:50;98036.00;;;-4.60
35582;BMP180;21687;48.900;9.188;2023-02-26T04:41:17;98055.00;;;-4.70
35582;BMP180;21687;48.900;9.188;2023-02-26T04:43:43;98046.00;;;-4.70
35582;BMP180;21687;48.900;9.188;2023-02-26T04:46:09;98054.00;;;-4.60
35582;BMP180;21687;48.900;9.188;2023-02-26T04:48:35;98047.00;;;-4.50
35582;BMP180;21687;48.900;9.188;2023-02-26T04:51:02;98054.00;;;-4.50
35582;BMP180;21687;48.900;9.188;2023-02-26T04:53:28;98058.00;;;-4.60
35582;BMP180;21687;48.900;9.188;2023-02-26T04:55:55;98056.00;;;-4.50
35582;BMP180;21687;48.900;9.188;2023-02-26T04:58:21;98055.00;;;-4.60
35582;BMP180;21687;48.900;9.188;2023-02-26T05:00:51;98059.00;;;-4.70
35582;BMP180;21687;48.900;9.188;2023-02-26T05:03:21;98052.00;;;-4.50
35582;BMP180;21687;48.900;9.188;2023-02-26T05:05:48;97996.00;;;-4.60
35582;BMP180;21687;48.900;9.188;2023-02-26T05:08:14;98062.00;;;-4.30
35582;BMP180;21687;48.900;9.188;2023-02-26T05:10:40;98054.00;;;-4.30
35582;BMP180;21687;48.900;9.188;2023-02-26T05:13:07;98064.00;;;-4.50
35582;BMP180;21687;48.900;9.188;2023-02-26T05:15:33;98056.00;;;-4.40
35582;BMP180;21687;48.900;9.188;2023-02-26T05:17:59;98069.00;;;-4.50
35582;BMP180;21687;48.900;9.188;2023-02-26T05:20:26;98067.00;;;-4.50
35582;BMP180;21687;48.900;9.188;2023-02-26T05:22:52;98073.00;;;-4.50
35582;BMP180;21687;48.900;9.188;2023-02-26T05:25:18;98073.00;;;-4.60
35582;BMP180;21687;48.900;9.188;2023-02-26T05:27:45;98079.00;;;-4.70
35582;BMP180;21687;48.900;9.188;2023-02-26T05:30:14;98070.00;;;-4.80
35582;BMP180;21687;48.900;9.188;2023-02-26T05:32:41;98082.00;;;-4.90
35582;BMP180;21687;48.900;9.188;2023-02-26T05:35:07;98076.00;;;-4.90
35582;BMP180;21687;48.900;9.188;2023-02-26T05:37:34;98087.00;;;-5.00
35582;BMP180;21687;48.900;9.188;2023-02-26T05:40:00;98084.00;;;-4.90
35582;BMP180;21687;48.900;9.188;2023-02-26T05:42:26;98087.00;;;-5.00
35582;BMP180;21687;48.900;9.188;2023-02-26T05:44:53;98094.00;;;-5.00
35582;BMP180;21687;48.900;9.188;2023-02-26T05:47:19;98094.00;;;-5.10
35582;BMP180;21687;48.900;9.188;2023-02-26T05:49:45;98104.00;;;-5.00
35582;BMP180;21687;48.900;9.188;2023-02-26T05:52:11;98105.00;;;-5.10
35582;BMP180;21687;48.900;9.188;2023-02-26T05:54:38;98107.00;;;-5.00
35582;BMP180;21687;48.900;9.188;2023-02-26T05:57:05;98111.00;;;-5.00
35582;BMP180;21687;48.900;9.188;2023-02-26T05:59:31;98109.00;;;-5.00
35582;BMP180;21687;48.900;9.188;2023-02-26T06:01:57;98117.00;;;-5.00
35582;BMP180;21687;48.900;9.188;2023-02-26T06:04:24;98123.00;;;-5.00
35582;BMP180;21687;48.900;9.188;2023-02-26T06:06:50;98119.00;;;-5.00
35582;BMP180;21687;48.900;9.188;2023-02-26T06:09:16;98121.00;;;-5.00
35582;BMP180;21687;48.900;9.188;2023-02-26T06:11:42;98116.00;;;-5.00
35582;BMP180;21687;48.900;9.188;2023-02-26T06:14:09;98132.00;;;-5.00
35582;BMP180;21687;48.900;9.188;2023-02-26T06:16:35;98148.00;;;-5.10
35582;BMP180;21687;48.900;9.188;2023-02-26T06:19:02;98135.00;;;-4.90
35582;BMP180;21687;48.900;9.188;2023-02-26T06:21:29;98142.00;;;-4.90
35582;BMP180;21687;48.900;9.188;2023-02-26T06:23:55;98150.00;;;-4.90
35582;BMP180;21687;48.900;9.188;2023-02-26T06:26:21;98144.00;;;-4.80
35582;BMP180;21687;48.900;9.188;2023-02-26T06:28:48;98142.00;;;-4.70
35582;BMP180;21687;48.900;9.188;2023-02-26T06:31:14;98158.00;;;-4.60
35582;BMP180;21687;48.900;9.188;2023-02-26T06:33:40;98154.00;;;-4.40
35582;BMP180;21687;48.900;9.188;2023-02-26T06:36:07;98169.00;;;-4.30
35582;BMP180;21687;48.900;9.188;2023-02-26T06:38:33;98167.00;;;-4.20
35582;BMP180;21687;48.900;9.188;2023-02-26T06:41:00;98167.00;;;-4.10
35582;BMP180;21687;48.900;9.188;2023-02-26T06:43:26;98169.00;;;-4.10
35582;BMP180;21687;48.900;9.188;2023-02-26T06:45:55;98169.00;;;-3.90
35582;BMP180;21687;48.900;9.188;2023-02-26T06:48:21;98188.00;;;-3.80
35582;BMP180;21687;48.900;9.188;2023-02-26T06:50:48;98191.00;;;-3.80
35582;BMP180;21687;48.900;9.188;2023-02-26T06:53:14;98200.00;;;-3.70
35582;BMP180;21687;48.900;9.188;2023-02-26T06:55:44;98194.00;;;-3.60
35582;BMP180;21687;48.900;9.188;2023-02-26T06:58:10;98205.00;;;-3.60
35582;BMP180;21687;48.900;9.188;2023-02-26T07:00:37;98209.00;;;-3.50
35582;BMP180;21687;48.900;9.188;2023-02-26T07:03:04;98209.00;;;-3.40
35582;BMP180;21687;48.900;9.188;2023-02-26T07:05:30;98221.00;;;-3.40
35582;BMP180;21687;48.900;9.188;2023-02-26T07:07:57;98219.00;;;-3.30
35582;BMP180;21687;48.900;9.188;2023-02-26T07:10:23;98225.00;;;-3.30
35582;BMP180;21687;48.900;9.188;2023-02-26T07:12:50;98222.00;;;-3.30
35582;BMP180;21687;48.900;9.188;2023-02-26T07:15:17;98233.00;;;-3.20
35582;BMP180;21687;48.900;9.188;2023-02-26T07:17:43;98226.00;;;-3.20
35582;BMP180;21687;48.900;9.188;2023-02-26T07:20:10;98232.00;;;-3.10
35582;BMP180;21687;48.900;9.188;2023-02-26T07:22:37;98238.00;;;-3.10
35582;BMP180;21687;48.900;9.188;2023-02-26T07:25:04;98235.00;;;-3.10
35582;BMP180;21687;48.900;9.188;2023-02-26T07:27:31;98224.00;;;-2.90
35582;BMP180;21687;48.900;9.188;2023-02-26T07:29:59;98210.00;;;-2.80
35582;BMP180;21687;48.900;9.188;2023-02-26T07:32:25;98226.00;;;-2.80
35582;BMP180;21687;48.900;9.188;2023-02-26T07:34:51;98231.00;;;-2.70
35582;BMP180;21687;48.900;9.188;2023-02-26T07:37:18;98243.00;;;-2.50
35582;BMP180;21687;48.900;9.188;2023-02-26T07:39:44;98243.00;;;-2.40
35582;BMP180;21687;48.900;9.188;2023-02-26T07:42:11;98229.00;;;-2.40
35582;BMP180;21687;48.900;9.188;2023-02-26T07:44:37;98238.00;;;-2.30
35582;BMP180;21687;48.900;9.188;2023-02-26T07:47:03;98245.00;;;-2.40
35582;BMP180;21687;48.900;9.188;2023-02-26T07:49:30;98247.00;;;-2.30
35582;BMP180;21687;48.900;9.188;2023-02-26T07:51:59;98243.00;;;-2.20
35582;BMP180;21687;48.900;9.188;2023-02-26T07:54:25;98250.00;;;-2.30
35582;BMP180;21687;48.900;9.188;2023-02-26T07:56:51;98249.00;;;-2.20
35582;BMP180;21687;48.900;9.188;2023-02-26T07:59:18;98254.00;;;-2.20
35582;BMP180;21687;48.900;9.188;2023-02-26T08:01:44;98260.00;;;-2.30
35582;BMP180;21687;48.900;9.188;2023-02-26T08:04:10;98252.00;;;-2.30
35582;BMP180;21687;48.900;9.188;2023-02-26T08:06:36;98266.00;;;-2.30
35582;BMP180;21687;48.900;9.188;2023-02-26T08:09:03;98262.00;;;-2.30
35582;BMP180;21687;48.900;9.188;2023-02-26T08:11:30;98263.00;;;-2.30
35582;BMP180;21687;48.900;9.188;2023-02-26T08:14:00;98262.00;;;-2.20
35582;BMP180;21687;48.900;9.188;2023-02-26T08:16:26;98259.00;;;-2.10
35582;BMP180;21687;48.900;9.188;2023-02-26T08:18:53;98262.00;;;-2.00
35582;BMP180;21687;48.900;9.188;2023-02-26T08:21:19;98264.00;;;-2.00
35582;BMP180;21687;48.900;9.188;2023-02-26T08:23:45;98268.00;;;-2.00
35582;BMP180;21687;48.900;9.188;2023-02-26T08:26:12;98269.00;;;-2.00
35582;BMP180;21687;48.900;9.188;2023-02-26T08:28:39;98274.00;;;-2.00
35582;BMP180;21687;48.900;9.188;2023-02-26T08:31:05;98266.00;;;-1.90
35582;BMP180;21687;48.900;9.188;2023-02-26T08:33:32;98278.00;;;-1.90
35582;BMP180;21687;48.900;9.188;2023-02-26T08:35:59;98273.00;;;-1.70
35582;BMP180;21687;48.900;9.188;2023-02-26T08:38:27;98286.00;;;-1.50
35582;BMP180;21687;48.900;9.188;2023-02-26T08:40:54;98293.00;;;-1.40
35582;BMP180;21687;48.900;9.188;2023-02-26T08:43:20;98279.00;;;-1.20
35582;BMP180;21687;48.900;9.188;2023-02-26T08:45:47;98299.00;;;-1.30
35582;BMP180;21687;48.900;9.188;2023-02-26T08:48:13;98289.00;;;-1.20
35582;BMP180;21687;48.900;9.188;2023-02-26T08:50:40;98295.00;;;-1.40
35582;BMP180;21687;48.900;9.188;2023-02-26T08:53:06;98298.00;;;-1.40
35582;BMP180;21687;48.900;9.188;2023-02-26T08:55:33;98300.00;;;-1.40
35582;BMP180;21687;48.900;9.188;2023-02-26T08:57:59;98305.00;;;-1.80
35582;BMP180;21687;48.900;9.188;2023-02-26T09:00:25;98311.00;;;-1.60
35582;BMP180;21687;48.900;9.188;2023-02-26T09:02:52;98302.00;;;-1.60
35582;BMP180;21687;48.900;9.188;2023-02-26T09:05:18;98311.00;;;-1.50
35582;BMP180;21687;48.900;9.188;2023-02-26T09:07:44;98317.00;;;-1.40
35582;BMP180;21687;48.900;9.188;2023-02-26T09:10:12;98325.00;;;-1.60
35582;BMP180;21687;48.900;9.188;2023-02-26T09:12:38;98320.00;;;-1.70
35582;BMP180;21687;48.900;9.188;2023-02-26T09:15:07;98323.00;;;-1.50
35582;BMP180;21687;48.900;9.188;2023-02-26T09:17:34;98319.00;;;-1.40
35582;BMP180;21687;48.900;9.188;2023-02-26T09:20:00;98319.00;;;-1.60
35582;BMP180;21687;48.900;9.188;2023-02-26T09:22:27;98324.00;;;-1.60
35582;BMP180;21687;48.900;9.188;2023-02-26T09:24:53;98331.00;;;-1.50
35582;BMP180;21687;48.900;9.188;2023-02-26T09:27:19;98335.00;;;-1.60
35582;BMP180;21687;48.900;9.188;2023-02-26T09:29:46;98330.00;;;-1.60
35582;BMP180;21687;48.900;9.188;2023-02-26T09:32:12;98331.00;;;-1.70
35582;BMP180;21687;48.900;9.188;2023-02-26T09:34:38;98333.00;;;-1.70
35582;BMP180;21687;48.900;9.188;2023-02-26T09:37:07;98329.00;;;-1.50
35582;BMP180;21687;48.900;9.188;2023-02-26T09:39:34;98337.00;;;-1.70
35582;BMP180;21687;48.900;9.188;2023-02-26T09:44:45;98345.00;;;-1.80
35582;BMP180;21687;48.900;9.188;2023-02-26T09:47:39;98347.00;;;-1.80
35582;BMP180;21687;48.900;9.188;2023-02-26T09:55:41;98353.00;;;-1.50
35582;BMP180;21687;48.900;9.188;2023-02-26T09:58:36;98356.00;;;-1.60
35582;BMP180;21687;48.900;9.188;2023-02-26T10:01:30;98371.00;;;-1.60
35582;BMP180;21687;48.900;9.188;2023-02-26T10:12:22;98366.00;;;-1.00
35582;BMP180;21687;48.900;9.188;2023-02-26T10:18:02;98376.00;;;-0.80
35582;BMP180;21687;48.900;9.188;2023-02-26T10:25:40;98373.00;;;-0.70
35582;BMP180;21687;48.900;9.188;2023-02-26T10:28:34;98376.00;;;-0.60
35582;BMP180;21687;48.900;9.188;2023-02-26T10:31:34;98380.00;;;-0.60
35582;BMP180;21687;48.900;9.188;2023-02-26T10:42:27;98378.00;;;-0.30
35582;BMP180;21687;48.900;9.188;2023-02-26T10:45:33;98365.00;;;-0.20
35582;BMP180;21687;48.900;9.188;2023-02-26T10:50:57;98374.00;;;0.10
35582;BMP180;21687;48.900;9.188;2023-02-26T10:53:25;98385.00;;;0.00
35582;BMP180;21687;48.900;9.188;2023-02-26T10:56:04;98392.00;;;0.10
35582;BMP180;21687;48.900;9.188;2023-02-26T10:58:32;98390.00;;;-0.10
35582;BMP180;21687;48.900;9.188;2023-02-26T11:00:58;98389.00;;;-0.10
35582;BMP180;21687;48.900;9.188;2023-02-26T11:03:42;98400.00;;;0.10
35582;BMP180;21687;48.900;9.188;2023-02-26T11:06:11;98390.00;;;0.00
35582;BMP180;21687;48.900;9.188;2023-02-26T11:08:42;98393.00;;;-0.20
35582;BMP180;21687;48.900;9.188;2023-02-26T11:11:10;98395.00;;;0.00
35582;BMP180;21687;48.900;9.188;2023-02-26T11:13:56;98400.00;;;0.00
35582;BMP180;21687;48.900;9.188;2023-02-26T11:16:22;98394.00;;;0.10
35582;BMP180;21687;48.900;9.188;2023-02-26T11:18:53;98394.00;;;0.20
35582;BMP180;21687;48.900;9.188;2023-02-26T11:21:28;98378.00;;;0.30
35582;BMP180;21687;48.900;9.188;2023-02-26T11:24:04;98402.00;;;0.40
35582;BMP180;21687;48.900;9.188;2023-02-26T11:26:36;98393.00;;;0.50
35582;BMP180;21687;48.900;9.188;2023-02-26T11:29:04;98388.00;;;0.40
35582;BMP180;21687;48.900;9.188;2023-02-26T11:31:31;98396.00;;;0.50
35582;BMP180;21687;48.900;9.188;2023-02-26T11:34:08;98384.00;;;0.40
35582;BMP180;21687;48.900;9.188;2023-02-26T11:36:39;98401.00;;;0.30
35582;BMP180;21687;48.900;9.188;2023-02-26T11:39:20;98386.00;;;0.40
35582;BMP180;21687;48.900;9.188;2023-02-26T11:41:48;98385.00;;;0.60
35582;BMP180;21687;48.900;9.188;2023-02-26T11:44:18;98396.00;;;0.80
35582;BMP180;21687;48.900;9.188;2023-02-26T11:46:56;98396.00;;;0.70
35582;BMP180;21687;48.900;9.188;2023-02-26T11:49:25;98381.00;;;0.50
35582;BMP180;21687;48.900;9.188;2023-02-26T11:54:38;98402.00;;;0.50
35582;BMP180;21687;48.900;9.188;2023-02-26T11:57:10;98396.00;;;0.60
35582;BMP180;21687;48.900;9.188;2023-02-26T11:59:39;98411.00;;;0.60
35582;BMP180;21687;48.900;9.188;2023-02-26T12:02:12;98404.00;;;0.50
35582;BMP180;21687;48.900;9.188;2023-02-26T12:04:41;98408.00;;;0.50
35582;BMP180;21687;48.900;9.188;2023-02-26T12:07:13;98403.00;;;0.50
35582;BMP180;21687;48.900;9.188;2023-02-26T12:09:39;98406.00;;;0.60
35582;BMP180;21687;48.900;9.188;2023-02-26T12:15:15;98417.00;;;0.60
35582;BMP180;21687;48.900;9.188;2023-02-26T12:23:27;98417.00;;;0.60
35582;BMP180;21687;48.900;9.188;2023-02-26T12:26:24;98404.00;;;0.70
35582;BMP180;21687;48.900;9.188;2023-02-26T12:29:32;98405.00;;;0.90
35582;BMP180;21687;48.900;9.188;2023-02-26T12:35:33;98397.00;;;0.90
35582;BMP180;21687;48.900;9.188;2023-02-26T12:38:29;98400.00;;;0.60
35582;BMP180;21687;48.900;9.188;2023-02-26T12:41:29;98394.00;;;0.60
35582;BMP180;21687;48.900;9.188;2023-02-26T12:43:59;98413.00;;;0.50
35582;BMP180;21687;48.900;9.188;2023-02-26T12:46:46;98407.00;;;0.30
35582;BMP180;21687;48.900;9.188;2023-02-26T12:55:13;98419.00;;;0.50
35582;BMP180;21687;48.900;9.188;2023-02-26T13:02:58;98423.00;;;0.90
35582;BMP180;21687;48.900;9.188;2023-02-26T13:08:17;98409.00;;;0.90
35582;BMP180;21687;48.900;9.188;2023-02-26T13:10:54;98422.00;;;0.90
35582;BMP180;21687;48.900;9.188;2023-02-26T13:13:54;98413.00;;;0.90
35582;BMP180;21687;48.900;9.188;2023-02-26T13:16:38;98447.00;;;0.80
35582;BMP180;21687;48.900;9.188;2023-02-26T13:19:43;98422.00;;;0.50
35582;BMP180;21687;48.900;9.188;2023-02-26T13:22:36;98426.00;;;0.50
35582;BMP180;21687;48.900;9.188;2023-02-26T13:25:22;98426.00;;;0.50
35582;BMP180;21687;48.900;9.188;2023-02-26T13:27:52;98431.00;;;0.60
35582;BMP180;21687;48.900;9.188;2023-02-26T13:30:31;98440.00;;;0.80
35582;BMP180;21687;48.900;9.188;2023-02-26T13:32:59;98433.00;;;0.90
35582;BMP180;21687;48.900;9.188;2023-02-26T13:35:36;98444.00;;;0.80
35582;BMP180;21687;48.900;9.188;2023-02-26T13:38:14;98445.00;;;0.70
35582;BMP180;21687;48.900;9.188;2023-02-26T13:46:25;98441.00;;;0.80
35582;BMP180;21687;48.900;9.188;2023-02-26T13:51:48;98443.00;;;1.10
35582;BMP180;21687;48.900;9.188;2023-02-26T13:59:47;98438.00;;;1.10
35582;BMP180;21687;48.900;9.188;2023-02-26T14:02:33;98447.00;;;1.10
35582;BMP180;21687;48.900;9.188;2023-02-26T14:05:00;98440.00;;;1.10
35582;BMP180;21687;48.900;9.188;2023-02-26T14:13:07;98445.00;;;1.20
35582;BMP180;21687;48.900;9.188;2023-02-26T14:16:01;98429.00;;;1.40
35582;BMP180;21687;48.900;9.188;2023-02-26T14:23:56;98438.00;;;1.40
35582;BMP180;21687;48.900;9.188;2023-02-26T14:26:24;98444.00;;;1.50
35582;BMP180;21687;48.900;9.188;2023-02-26T14:29:06;98435.00;;;1.40
35582;BMP180;21687;48.900;9.188;2023-02-26T14:31:54;98431.00;;;1.40
35582;BMP180;21687;48.900;9.188;2023-02-26T14:34:31;98447.00;;;1.40
35582;BMP180;21687;48.900;9.188;2023-02-26T14:37:03;98459.00;;;1.40
35582;BMP180;21687;48.900;9.188;2023-02-26T14:42:31;98448.00;;;1.20
35582;BMP180;21687;48.900;9.188;2023-02-26T14:45:16;98468.00;;;1.10
35582;BMP180;21687;48.900;9.188;2023-02-26T14:47:44;98463.00;;;1.00
35582;BMP180;21687;48.900;9.188;2023-02-26T14:50:18;98453.00;;;1.10
35582;BMP180;21687;48.900;9.188;2023-02-26T14:58:45;98467.00;;;1.30
35582;BMP180;21687;48.900;9.188;2023-02-26T15:15:41;98493.00;;;1.00
35582;BMP180;21687;48.900;9.188;2023-02-26T15:23:54;98479.00;;;0.60
35582;BMP180;21687;48.900;9.188;2023-02-26T15:26:33;98491.00;;;0.70
35582;BMP180;21687;48.900;9.188;2023-02-26T15:29:03;98491.00;;;0.70
35582;BMP180;21687;48.900;9.188;2023-02-26T15:31:41;98490.00;;;0.90
35582;BMP180;21687;48.900;9.188;2023-02-26T15:34:13;98486.00;;;1.00
35582;BMP180;21687;48.900;9.188;2023-02-26T15:36:43;98491.00;;;1.20
35582;BMP180;21687;48.900;9.188;2023-02-26T15:39:11;98493.00;;;1.20
35582;BMP180;21687;48.900;9.188;2023-02-26T15:41:38;98462.00;;;1.30
35582;BMP180;21687;48.900;9.188;2023-02-26T15:44:12;98498.00;;;1.30
35582;BMP180;21687;48.900;9.188;2023-02-26T15:46:44;98492.00;;;1.20
35582;BMP180;21687;48.900;9.188;2023-02-26T15:49:33;98504.00;;;1.00
35582;BMP180;21687;48.900;9.188;2023-02-26T15:52:02;98535.00;;;0.90
35582;BMP180;21687;48.900;9.188;2023-02-26T15:54:44;98511.00;;;0.80
35582;BMP180;21687;48.900;9.188;2023-02-26T15:57:13;98506.00;;;0.60
35582;BMP180;21687;48.900;9.188;2023-02-26T15:59:48;98523.00;;;0.60
35582;BMP180;21687;48.900;9.188;2023-02-26T16:02:20;98511.00;;;0.50
35582;BMP180;21687;48.900;9.188;2023-02-26T16:04:47;98530.00;;;0.50
35582;BMP180;21687;48.900;9.188;2023-02-26T16:07:14;98541.00;;;0.60
35582;BMP180;21687;48.900;9.188;2023-02-26T16:09:45;98523.00;;;0.60
35582;BMP180;21687;48.900;9.188;2023-02-26T16:12:19;98531.00;;;0.60
35582;BMP180;21687;48.900;9.188;2023-02-26T16:14:50;98523.00;;;0.60
35582;BMP180;21687;48.900;9.188;2023-02-26T16:17:30;98543.00;;;0.60
35582;BMP180;21687;48.900;9.188;2023-02-26T16:20:04;98537.00;;;0.50
35582;BMP180;21687;48.900;9.188;2023-02-26T16:22:36;98545.00;;;0.30
35582;BMP180;21687;48.900;9.188;2023-02-26T16:28:01;98555.00;;;0.20
35582;BMP180;21687;48.900;9.188;2023-02-26T16:30:38;98566.00;;;0.10
35582;BMP180;21687;48.900;9.188;2023-02-26T16:33:13;98568.00;;;0.10
35582;BMP180;21687;48.900;9.188;2023-02-26T16:35:46;98569.00;;;0.10
35582;BMP180;21687;48.900;9.188;2023-02-26T16:38:44;98566.00;;;0.10
35582;BMP180;21687;48.900;9.188;2023-02-26T16:41:11;98576.00;;;0.20
35582;BMP180;21687;48.900;9.188;2023-02-26T16:46:14;98587.00;;;0.20
35582;BMP180;21687;48.900;9.188;2023-02-26T16:48:51;98589.00;;;0.10
35582;BMP180;21687;48.900;9.188;2023-02-26T16:51:23;98597.00;;;0.10
35582;BMP180;21687;48.900;9.188;2023-02-26T16:54:00;98611.00;;;0.00
35582;BMP180;21687;48.900;9.188;2023-02-26T16:56:32;98602.00;;;-0.10
35582;BMP180;21687;48.900;9.188;2023-02-26T16:59:03;98613.00;;;-0.20
35582;BMP180;21687;48.900;9.188;2023-02-26T17:01:38;98616.00;;;-0.30
35582;BMP180;21687;48.900;9.188;2023-02-26T17:04:05;98619.00;;;-0.30
35582;BMP180;21687;48.900;9.188;2023-02-26T17:06:37;98600.00;;;-0.40
35582;BMP180;21687;48.900;9.188;2023-02-26T17:09:05;98623.00;;;-0.40
35582;BMP180;21687;48.900;9.188;2023-02-26T17:11:39;98628.00;;;-0.30
35582;BMP180;21687;48.900;9.188;2023-02-26T17:14:15;98634.00;;;-0.30
35582;BMP180;21687;48.900;9.188;2023-02-26T17:16:48;98643.00;;;-0.20
35582;BMP180;21687;48.900;9.188;2023-02-26T17:19:15;98646.00;;;-0.20
35582;BMP180;21687;48.900;9.188;2023-02-26T17:21:48;98634.00;;;-0.30
35582;BMP180;21687;48.900;9.188;2023-02-26T17:24:20;98646.00;;;-0.30
35582;BMP180;21687;48.900;9.188;2023-02-26T17:26:48;98645.00;;;-0.50